West Carrollton, Ohio
Current Conditions -  °F | °C
As of 8:53 PM on Friday 24 Oct 2014 (Local Time) from KMGY Reporting Station
Broken Clouds Broken Clouds  
Wind Chill: 12°   Ceiling: 4200
Heat Index: 12°   Visibility: 10mi
Dew Point:   Wind: 5mph
Humidity: 64%   Direction: 190°S
Pressure: 30.03"   Gusts: NA
Location:  39.664°N, 84.2415°W
Report Text: KMGY 250053Z AUTO 19004KT 10SM BKN042 12/05 A3003 RMK AO2 SLP172 T01170050
Loading
Personal Weather Stations






























Interactive Weather Map
Tropical Storm Tracking
New forecast layout! Learn more

10-Day Weather Forecast

Advertisements
Track Severe Weather on mobile